首页
METAR-TAF:

METAR-TAF

机场 :

Schenectady County Airport

斯克内克塔迪, 紐約州, 美国

纬度: 42-51N, 经度: 073-56W, 海拔: 115米

当前天气观测

该预报发布于18分钟前的17:45 UTC
风速3节,风向东转东南
温度 30°C
湿度 43%
气压 1014 hPa
能見度: 24.1公里
少量云层高于3500英尺

METAR: KSCH 041745Z 12003KT 15SM FEW035 30/16 A2993

时间: 14:03 (18:03 UTC)


TAF: 丢失

超过4000个机场的气象观测和天气预报(METAR&TAF报告)。

可查询的气象台以黄色和红色小点在地图上表示。

将鼠标移到小点上方,可查看气象台名称。

然后点击查看天气观测和预报。

如需切换地图:点击带黑十字的绿色按钮放大地图;点击带横线的绿色按钮缩小地图;或者点击绿色箭头查看邻近地区的地图。


METAR-TAF: